sensor_id;sensor_type;location;lat;lon;timestamp;temperature;humidity
45233;DHT22;30969;51.052;17.056;2023-04-06T00:04:24;4.30;64.10
45233;DHT22;30969;51.052;17.056;2023-04-06T00:09:30;4.20;64.30
45233;DHT22;30969;51.052;17.056;2023-04-06T00:14:34;4.10;64.30
45233;DHT22;30969;51.052;17.056;2023-04-06T00:19:37;4.00;64.50
45233;DHT22;30969;51.052;17.056;2023-04-06T00:24:42;4.00;64.80
45233;DHT22;30969;51.052;17.056;2023-04-06T00:29:45;3.90;65.00
45233;DHT22;30969;51.052;17.056;2023-04-06T00:34:48;3.90;65.10
45233;DHT22;30969;51.052;17.056;2023-04-06T00:39:53;3.80;65.10
45233;DHT22;30969;51.052;17.056;2023-04-06T00:44:58;3.80;64.90
45233;DHT22;30969;51.052;17.056;2023-04-06T00:50:02;3.70;64.90
45233;DHT22;30969;51.052;17.056;2023-04-06T00:55:08;3.70;64.80
45233;DHT22;30969;51.052;17.056;2023-04-06T01:00:12;3.50;65.00
45233;DHT22;30969;51.052;17.056;2023-04-06T01:05:16;3.30;65.60
45233;DHT22;30969;51.052;17.056;2023-04-06T01:10:24;3.30;65.90
45233;DHT22;30969;51.052;17.056;2023-04-06T01:15:28;3.20;67.10
45233;DHT22;30969;51.052;17.056;2023-04-06T01:20:32;3.00;66.70
45233;DHT22;30969;51.052;17.056;2023-04-06T01:25:37;3.00;68.10
45233;DHT22;30969;51.052;17.056;2023-04-06T01:30:41;3.00;67.00
45233;DHT22;30969;51.052;17.056;2023-04-06T01:35:44;3.00;67.00
45233;DHT22;30969;51.052;17.056;2023-04-06T01:40:49;3.00;68.10
45233;DHT22;30969;51.052;17.056;2023-04-06T01:45:52;3.00;67.30
45233;DHT22;30969;51.052;17.056;2023-04-06T01:50:56;3.00;67.20
45233;DHT22;30969;51.052;17.056;2023-04-06T01:56:01;2.90;67.10
45233;DHT22;30969;51.052;17.056;2023-04-06T02:01:04;2.80;67.20
45233;DHT22;30969;51.052;17.056;2023-04-06T02:06:08;2.80;67.40
45233;DHT22;30969;51.052;17.056;2023-04-06T02:11:13;2.80;67.40
45233;DHT22;30969;51.052;17.056;2023-04-06T02:16:17;2.80;67.40
45233;DHT22;30969;51.052;17.056;2023-04-06T02:21:20;2.70;67.40
45233;DHT22;30969;51.052;17.056;2023-04-06T02:26:25;2.60;67.60
45233;DHT22;30969;51.052;17.056;2023-04-06T02:31:28;2.60;67.90
45233;DHT22;30969;51.052;17.056;2023-04-06T02:36:32;2.50;68.00
45233;DHT22;30969;51.052;17.056;2023-04-06T02:41:37;2.50;68.20
45233;DHT22;30969;51.052;17.056;2023-04-06T02:46:40;2.50;68.10
45233;DHT22;30969;51.052;17.056;2023-04-06T02:51:43;2.50;68.00
45233;DHT22;30969;51.052;17.056;2023-04-06T02:56:49;2.50;67.60
45233;DHT22;30969;51.052;17.056;2023-04-06T03:01:52;2.30;67.70
45233;DHT22;30969;51.052;17.056;2023-04-06T03:06:56;2.30;67.90
45233;DHT22;30969;51.052;17.056;2023-04-06T03:12:04;2.40;68.00
45233;DHT22;30969;51.052;17.056;2023-04-06T03:17:11;2.30;68.10
45233;DHT22;30969;51.052;17.056;2023-04-06T03:22:14;2.30;68.30
45233;DHT22;30969;51.052;17.056;2023-04-06T03:27:19;2.40;68.50
45233;DHT22;30969;51.052;17.056;2023-04-06T03:32:23;2.40;68.40
45233;DHT22;30969;51.052;17.056;2023-04-06T03:37:26;2.40;68.30
45233;DHT22;30969;51.052;17.056;2023-04-06T03:42:31;2.40;67.90
45233;DHT22;30969;51.052;17.056;2023-04-06T03:47:35;2.40;67.70
45233;DHT22;30969;51.052;17.056;2023-04-06T03:52:39;2.50;67.50
45233;DHT22;30969;51.052;17.056;2023-04-06T03:57:44;2.40;67.50
45233;DHT22;30969;51.052;17.056;2023-04-06T04:02:47;2.50;67.50
45233;DHT22;30969;51.052;17.056;2023-04-06T04:07:51;2.50;67.70
45233;DHT22;30969;51.052;17.056;2023-04-06T04:12:55;2.50;67.60
45233;DHT22;30969;51.052;17.056;2023-04-06T04:17:59;2.50;67.30
45233;DHT22;30969;51.052;17.056;2023-04-06T04:23:03;2.50;67.20
45233;DHT22;30969;51.052;17.056;2023-04-06T04:28:07;2.50;67.10
45233;DHT22;30969;51.052;17.056;2023-04-06T04:33:11;2.50;67.00
45233;DHT22;30969;51.052;17.056;2023-04-06T04:38:14;2.40;67.10
45233;DHT22;30969;51.052;17.056;2023-04-06T04:43:19;2.50;67.20
45233;DHT22;30969;51.052;17.056;2023-04-06T04:48:23;2.60;67.40
45233;DHT22;30969;51.052;17.056;2023-04-06T04:53:26;2.60;67.60
45233;DHT22;30969;51.052;17.056;2023-04-06T04:58:31;2.60;68.00
45233;DHT22;30969;51.052;17.056;2023-04-06T05:03:36;2.60;68.40
45233;DHT22;30969;51.052;17.056;2023-04-06T05:08:42;2.70;68.70
45233;DHT22;30969;51.052;17.056;2023-04-06T05:13:47;2.70;68.90
45233;DHT22;30969;51.052;17.056;2023-04-06T05:18:50;2.80;69.00
45233;DHT22;30969;51.052;17.056;2023-04-06T05:23:55;2.90;68.90
45233;DHT22;30969;51.052;17.056;2023-04-06T05:29:00;2.90;68.70
45233;DHT22;30969;51.052;17.056;2023-04-06T05:34:04;3.00;68.80
45233;DHT22;30969;51.052;17.056;2023-04-06T05:39:07;3.00;68.70
45233;DHT22;30969;51.052;17.056;2023-04-06T05:44:13;2.90;69.00
45233;DHT22;30969;51.052;17.056;2023-04-06T05:49:16;2.80;69.50
45233;DHT22;30969;51.052;17.056;2023-04-06T05:54:20;2.90;69.80
45233;DHT22;30969;51.052;17.056;2023-04-06T05:59:25;2.90;69.90
45233;DHT22;30969;51.052;17.056;2023-04-06T06:04:28;3.00;69.70
45233;DHT22;30969;51.052;17.056;2023-04-06T06:09:32;3.10;69.60
45233;DHT22;30969;51.052;17.056;2023-04-06T06:14:36;3.10;69.60
45233;DHT22;30969;51.052;17.056;2023-04-06T06:19:40;3.10;69.80
45233;DHT22;30969;51.052;17.056;2023-04-06T06:24:44;3.20;69.90
45233;DHT22;30969;51.052;17.056;2023-04-06T06:29:48;3.20;69.90
45233;DHT22;30969;51.052;17.056;2023-04-06T06:34:52;3.20;70.00
45233;DHT22;30969;51.052;17.056;2023-04-06T06:39:55;3.20;70.10
45233;DHT22;30969;51.052;17.056;2023-04-06T06:45:00;3.30;70.30
45233;DHT22;30969;51.052;17.056;2023-04-06T06:50:05;3.30;70.30
45233;DHT22;30969;51.052;17.056;2023-04-06T06:55:10;3.40;70.40
45233;DHT22;30969;51.052;17.056;2023-04-06T07:00:15;3.50;70.60
45233;DHT22;30969;51.052;17.056;2023-04-06T07:05:19;3.50;70.80
45233;DHT22;30969;51.052;17.056;2023-04-06T07:10:30;3.60;70.90
45233;DHT22;30969;51.052;17.056;2023-04-06T07:15:34;3.80;70.70
45233;DHT22;30969;51.052;17.056;2023-04-06T07:20:40;3.90;70.80
45233;DHT22;30969;51.052;17.056;2023-04-06T07:25:43;4.00;70.90
45233;DHT22;30969;51.052;17.056;2023-04-06T07:30:49;4.10;70.90
45233;DHT22;30969;51.052;17.056;2023-04-06T07:35:52;4.20;70.70
45233;DHT22;30969;51.052;17.056;2023-04-06T07:40:56;4.40;70.80
45233;DHT22;30969;51.052;17.056;2023-04-06T07:46:01;4.40;70.80
45233;DHT22;30969;51.052;17.056;2023-04-06T07:51:05;4.60;70.90
45233;DHT22;30969;51.052;17.056;2023-04-06T07:56:08;4.70;70.70
45233;DHT22;30969;51.052;17.056;2023-04-06T08:01:14;4.80;70.50
45233;DHT22;30969;51.052;17.056;2023-04-06T08:06:17;4.90;70.00
45233;DHT22;30969;51.052;17.056;2023-04-06T08:11:21;5.00;69.10
45233;DHT22;30969;51.052;17.056;2023-04-06T08:16:25;5.10;68.40
45233;DHT22;30969;51.052;17.056;2023-04-06T08:21:29;5.20;67.80
45233;DHT22;30969;51.052;17.056;2023-04-06T08:26:33;5.30;66.70
45233;DHT22;30969;51.052;17.056;2023-04-06T08:31:40;5.30;65.30
45233;DHT22;30969;51.052;17.056;2023-04-06T08:36:44;5.40;64.90
45233;DHT22;30969;51.052;17.056;2023-04-06T08:41:49;5.40;64.50
45233;DHT22;30969;51.052;17.056;2023-04-06T08:46:55;5.40;59.40
45233;DHT22;30969;51.052;17.056;2023-04-06T08:51:59;5.40;57.90
45233;DHT22;30969;51.052;17.056;2023-04-06T08:57:04;5.40;58.30
45233;DHT22;30969;51.052;17.056;2023-04-06T09:02:15;5.40;58.10
45233;DHT22;30969;51.052;17.056;2023-04-06T09:07:21;5.60;59.30
45233;DHT22;30969;51.052;17.056;2023-04-06T09:12:25;5.70;59.80
45233;DHT22;30969;51.052;17.056;2023-04-06T09:17:32;5.80;59.40
45233;DHT22;30969;51.052;17.056;2023-04-06T09:22:36;6.00;59.30
45233;DHT22;30969;51.052;17.056;2023-04-06T09:27:40;6.00;56.30
45233;DHT22;30969;51.052;17.056;2023-04-06T09:32:49;6.10;55.20
45233;DHT22;30969;51.052;17.056;2023-04-06T09:37:53;6.20;55.30
45233;DHT22;30969;51.052;17.056;2023-04-06T09:42:57;6.20;54.80
45233;DHT22;30969;51.052;17.056;2023-04-06T09:48:03;6.40;55.30
45233;DHT22;30969;51.052;17.056;2023-04-06T09:53:07;6.50;55.00
45233;DHT22;30969;51.052;17.056;2023-04-06T09:58:13;6.70;54.70
45233;DHT22;30969;51.052;17.056;2023-04-06T10:03:28;6.70;52.90
45233;DHT22;30969;51.052;17.056;2023-04-06T10:08:38;6.80;52.00
45233;DHT22;30969;51.052;17.056;2023-04-06T10:13:44;6.90;52.10
45233;DHT22;30969;51.052;17.056;2023-04-06T10:18:56;7.00;51.10
45233;DHT22;30969;51.052;17.056;2023-04-06T10:24:02;7.20;50.80
45233;DHT22;30969;51.052;17.056;2023-04-06T10:29:12;7.40;50.00
45233;DHT22;30969;51.052;17.056;2023-04-06T10:34:16;7.40;48.90
45233;DHT22;30969;51.052;17.056;2023-04-06T10:39:24;7.70;50.40
45233;DHT22;30969;51.052;17.056;2023-04-06T10:44:29;7.80;49.20
45233;DHT22;30969;51.052;17.056;2023-04-06T10:49:36;7.90;48.00
45233;DHT22;30969;51.052;17.056;2023-04-06T10:54:42;8.00;48.20
45233;DHT22;30969;51.052;17.056;2023-04-06T10:59:48;8.00;46.80
45233;DHT22;30969;51.052;17.056;2023-04-06T11:04:56;8.10;46.70
45233;DHT22;30969;51.052;17.056;2023-04-06T11:10:00;8.20;46.70
45233;DHT22;30969;51.052;17.056;2023-04-06T11:15:17;8.30;45.30
45233;DHT22;30969;51.052;17.056;2023-04-06T11:20:22;8.50;45.50
45233;DHT22;30969;51.052;17.056;2023-04-06T11:25:26;8.50;43.90
45233;DHT22;30969;51.052;17.056;2023-04-06T11:30:32;8.50;43.40
45233;DHT22;30969;51.052;17.056;2023-04-06T11:35:37;8.70;43.30
45233;DHT22;30969;51.052;17.056;2023-04-06T11:40:40;8.80;43.90
45233;DHT22;30969;51.052;17.056;2023-04-06T11:45:44;9.00;43.00
45233;DHT22;30969;51.052;17.056;2023-04-06T11:50:55;9.10;43.80
45233;DHT22;30969;51.052;17.056;2023-04-06T11:55:59;9.20;43.90
45233;DHT22;30969;51.052;17.056;2023-04-06T12:01:04;9.30;43.90
45233;DHT22;30969;51.052;17.056;2023-04-06T12:06:09;9.40;42.80
45233;DHT22;30969;51.052;17.056;2023-04-06T12:11:12;9.50;42.30
45233;DHT22;30969;51.052;17.056;2023-04-06T12:16:16;9.50;41.20
45233;DHT22;30969;51.052;17.056;2023-04-06T12:21:22;9.50;42.40
45233;DHT22;30969;51.052;17.056;2023-04-06T12:26:29;9.70;42.50
45233;DHT22;30969;51.052;17.056;2023-04-06T12:31:34;9.90;41.90
45233;DHT22;30969;51.052;17.056;2023-04-06T12:36:42;10.00;41.40
45233;DHT22;30969;51.052;17.056;2023-04-06T12:41:46;10.10;40.80
45233;DHT22;30969;51.052;17.056;2023-04-06T12:46:49;10.20;41.20
45233;DHT22;30969;51.052;17.056;2023-04-06T12:51:54;10.40;41.10
45233;DHT22;30969;51.052;17.056;2023-04-06T12:56:58;10.40;39.40
45233;DHT22;30969;51.052;17.056;2023-04-06T13:02:03;10.50;39.50
45233;DHT22;30969;51.052;17.056;2023-04-06T13:07:08;10.60;38.60
45233;DHT22;30969;51.052;17.056;2023-04-06T13:12:11;10.70;38.50
45233;DHT22;30969;51.052;17.056;2023-04-06T13:17:15;10.80;37.90
45233;DHT22;30969;51.052;17.056;2023-04-06T13:22:20;10.80;37.70
45233;DHT22;30969;51.052;17.056;2023-04-06T13:27:24;10.90;38.10
45233;DHT22;30969;51.052;17.056;2023-04-06T13:32:29;11.10;37.20
45233;DHT22;30969;51.052;17.056;2023-04-06T13:37:35;11.20;36.60
45233;DHT22;30969;51.052;17.056;2023-04-06T13:42:38;11.30;36.80
45233;DHT22;30969;51.052;17.056;2023-04-06T13:47:42;11.40;36.70
45233;DHT22;30969;51.052;17.056;2023-04-06T13:52:48;11.40;35.00
45233;DHT22;30969;51.052;17.056;2023-04-06T13:57:52;11.30;35.50
45233;DHT22;30969;51.052;17.056;2023-04-06T14:02:55;11.40;35.50
45233;DHT22;30969;51.052;17.056;2023-04-06T14:08:01;11.50;34.90
45233;DHT22;30969;51.052;17.056;2023-04-06T14:13:05;11.50;35.10
45233;DHT22;30969;51.052;17.056;2023-04-06T14:18:08;11.50;35.10
45233;DHT22;30969;51.052;17.056;2023-04-06T14:23:13;11.50;35.00
45233;DHT22;30969;51.052;17.056;2023-04-06T14:28:20;11.60;35.40
45233;DHT22;30969;51.052;17.056;2023-04-06T14:33:24;11.80;35.60
45233;DHT22;30969;51.052;17.056;2023-04-06T14:38:29;12.10;34.40
45233;DHT22;30969;51.052;17.056;2023-04-06T14:43:34;12.20;34.10
45233;DHT22;30969;51.052;17.056;2023-04-06T14:48:37;12.50;34.00
45233;DHT22;30969;51.052;17.056;2023-04-06T14:53:42;12.80;34.10
45233;DHT22;30969;51.052;17.056;2023-04-06T14:58:47;13.20;32.70
45233;DHT22;30969;51.052;17.056;2023-04-06T15:03:50;13.60;32.20
45233;DHT22;30969;51.052;17.056;2023-04-06T15:08:55;14.70;30.80
45233;DHT22;30969;51.052;17.056;2023-04-06T15:14:00;15.80;28.70
45233;DHT22;30969;51.052;17.056;2023-04-06T15:19:04;16.00;27.90
45233;DHT22;30969;51.052;17.056;2023-04-06T15:24:09;16.00;28.90
45233;DHT22;30969;51.052;17.056;2023-04-06T15:29:14;15.90;28.70
45233;DHT22;30969;51.052;17.056;2023-04-06T15:34:17;16.00;28.60
45233;DHT22;30969;51.052;17.056;2023-04-06T15:39:25;16.20;27.80
45233;DHT22;30969;51.052;17.056;2023-04-06T15:44:30;16.00;28.10
45233;DHT22;30969;51.052;17.056;2023-04-06T15:49:33;15.60;28.20
45233;DHT22;30969;51.052;17.056;2023-04-06T15:54:38;14.90;28.90
45233;DHT22;30969;51.052;17.056;2023-04-06T15:59:42;14.20;29.70
45233;DHT22;30969;51.052;17.056;2023-04-06T16:04:46;13.50;30.10
45233;DHT22;30969;51.052;17.056;2023-04-06T16:09:51;12.90;31.30
45233;DHT22;30969;51.052;17.056;2023-04-06T16:14:54;12.50;32.40
45233;DHT22;30969;51.052;17.056;2023-04-06T16:19:58;12.20;32.30
45233;DHT22;30969;51.052;17.056;2023-04-06T16:25:03;12.00;33.10
45233;DHT22;30969;51.052;17.056;2023-04-06T16:30:08;11.70;33.30
45233;DHT22;30969;51.052;17.056;2023-04-06T16:35:12;11.60;33.90
45233;DHT22;30969;51.052;17.056;2023-04-06T16:40:17;11.60;34.00
45233;DHT22;30969;51.052;17.056;2023-04-06T16:45:21;11.60;34.20
45233;DHT22;30969;51.052;17.056;2023-04-06T16:50:24;11.40;33.80
45233;DHT22;30969;51.052;17.056;2023-04-06T16:55:29;11.10;34.10
45233;DHT22;30969;51.052;17.056;2023-04-06T17:00:35;10.80;34.90
45233;DHT22;30969;51.052;17.056;2023-04-06T17:05:39;10.60;35.40
45233;DHT22;30969;51.052;17.056;2023-04-06T17:10:43;10.50;35.80
45233;DHT22;30969;51.052;17.056;2023-04-06T17:16:04;10.50;36.00
45233;DHT22;30969;51.052;17.056;2023-04-06T17:21:09;10.40;36.30
45233;DHT22;30969;51.052;17.056;2023-04-06T17:26:17;10.30;36.60
45233;DHT22;30969;51.052;17.056;2023-04-06T17:31:20;10.10;37.00
45233;DHT22;30969;51.052;17.056;2023-04-06T17:36:24;10.00;37.10
45233;DHT22;30969;51.052;17.056;2023-04-06T17:41:31;9.90;38.60
45233;DHT22;30969;51.052;17.056;2023-04-06T17:46:36;9.90;37.70
45233;DHT22;30969;51.052;17.056;2023-04-06T17:51:39;9.90;38.10
45233;DHT22;30969;51.052;17.056;2023-04-06T17:56:44;9.80;38.30
45233;DHT22;30969;51.052;17.056;2023-04-06T18:01:50;9.80;38.50
45233;DHT22;30969;51.052;17.056;2023-04-06T18:06:53;9.80;38.50
45233;DHT22;30969;51.052;17.056;2023-04-06T18:11:58;9.80;38.60
45233;DHT22;30969;51.052;17.056;2023-04-06T18:17:02;9.70;38.70
45233;DHT22;30969;51.052;17.056;2023-04-06T18:22:06;9.70;38.70
45233;DHT22;30969;51.052;17.056;2023-04-06T18:27:11;9.70;38.70
45233;DHT22;30969;51.052;17.056;2023-04-06T18:32:15;9.60;38.70
45233;DHT22;30969;51.052;17.056;2023-04-06T18:37:19;9.60;38.90
45233;DHT22;30969;51.052;17.056;2023-04-06T18:42:24;9.60;38.90
45233;DHT22;30969;51.052;17.056;2023-04-06T18:47:27;9.60;40.10
45233;DHT22;30969;51.052;17.056;2023-04-06T18:52:30;9.60;39.20
45233;DHT22;30969;51.052;17.056;2023-04-06T18:57:35;9.70;39.30
45233;DHT22;30969;51.052;17.056;2023-04-06T19:02:39;9.60;39.20
45233;DHT22;30969;51.052;17.056;2023-04-06T19:07:43;9.70;39.30
45233;DHT22;30969;51.052;17.056;2023-04-06T19:12:51;9.60;39.30
45233;DHT22;30969;51.052;17.056;2023-04-06T19:17:55;9.60;39.50
45233;DHT22;30969;51.052;17.056;2023-04-06T19:22:58;9.60;39.70
45233;DHT22;30969;51.052;17.056;2023-04-06T19:28:04;9.60;40.00
45233;DHT22;30969;51.052;17.056;2023-04-06T19:33:10;9.60;40.10
45233;DHT22;30969;51.052;17.056;2023-04-06T19:38:14;9.50;40.20
45233;DHT22;30969;51.052;17.056;2023-04-06T19:43:18;9.50;40.30
45233;DHT22;30969;51.052;17.056;2023-04-06T19:48:22;9.40;40.30
45233;DHT22;30969;51.052;17.056;2023-04-06T19:53:26;9.40;40.40
45233;DHT22;30969;51.052;17.056;2023-04-06T19:58:31;9.40;41.50
45233;DHT22;30969;51.052;17.056;2023-04-06T20:03:34;9.30;40.70
45233;DHT22;30969;51.052;17.056;2023-04-06T20:08:38;9.30;40.70
45233;DHT22;30969;51.052;17.056;2023-04-06T20:13:43;9.20;40.90
45233;DHT22;30969;51.052;17.056;2023-04-06T20:18:47;9.20;40.90
45233;DHT22;30969;51.052;17.056;2023-04-06T20:23:50;9.10;41.10
45233;DHT22;30969;51.052;17.056;2023-04-06T20:28:55;9.10;41.30
45233;DHT22;30969;51.052;17.056;2023-04-06T20:34:00;9.10;41.40
45233;DHT22;30969;51.052;17.056;2023-04-06T20:39:03;9.10;41.40
45233;DHT22;30969;51.052;17.056;2023-04-06T20:44:08;9.10;41.60
45233;DHT22;30969;51.052;17.056;2023-04-06T20:49:12;9.10;41.70
45233;DHT22;30969;51.052;17.056;2023-04-06T20:54:15;9.00;41.70
45233;DHT22;30969;51.052;17.056;2023-04-06T20:59:20;8.90;41.80
45233;DHT22;30969;51.052;17.056;2023-04-06T21:04:24;8.90;41.90
45233;DHT22;30969;51.052;17.056;2023-04-06T21:09:28;8.90;42.00
45233;DHT22;30969;51.052;17.056;2023-04-06T21:14:32;8.90;41.90
45233;DHT22;30969;51.052;17.056;2023-04-06T21:19:36;8.90;41.90
45233;DHT22;30969;51.052;17.056;2023-04-06T21:24:39;8.90;42.00
45233;DHT22;30969;51.052;17.056;2023-04-06T21:29:45;8.90;42.00
45233;DHT22;30969;51.052;17.056;2023-04-06T21:34:48;8.90;42.10
45233;DHT22;30969;51.052;17.056;2023-04-06T21:39:53;8.90;42.20
45233;DHT22;30969;51.052;17.056;2023-04-06T21:44:59;8.90;42.30
45233;DHT22;30969;51.052;17.056;2023-04-06T21:50:03;8.80;42.60
45233;DHT22;30969;51.052;17.056;2023-04-06T21:55:07;8.80;42.80
45233;DHT22;30969;51.052;17.056;2023-04-06T22:00:13;8.70;42.80
45233;DHT22;30969;51.052;17.056;2023-04-06T22:05:17;8.70;43.00
45233;DHT22;30969;51.052;17.056;2023-04-06T22:10:21;8.70;43.00
45233;DHT22;30969;51.052;17.056;2023-04-06T22:15:26;8.70;42.90
45233;DHT22;30969;51.052;17.056;2023-04-06T22:20:29;8.70;43.10
45233;DHT22;30969;51.052;17.056;2023-04-06T22:25:33;8.70;43.10
45233;DHT22;30969;51.052;17.056;2023-04-06T22:30:38;8.70;43.20
45233;DHT22;30969;51.052;17.056;2023-04-06T22:35:41;8.70;44.20
45233;DHT22;30969;51.052;17.056;2023-04-06T22:40:45;8.70;43.10
45233;DHT22;30969;51.052;17.056;2023-04-06T22:45:49;8.70;43.50
45233;DHT22;30969;51.052;17.056;2023-04-06T22:50:54;8.80;43.60
45233;DHT22;30969;51.052;17.056;2023-04-06T22:55:58;8.70;44.60
45233;DHT22;30969;51.052;17.056;2023-04-06T23:01:03;8.70;43.80
45233;DHT22;30969;51.052;17.056;2023-04-06T23:06:06;8.60;44.30
45233;DHT22;30969;51.052;17.056;2023-04-06T23:11:10;8.50;45.40
45233;DHT22;30969;51.052;17.056;2023-04-06T23:16:15;8.50;45.40
45233;DHT22;30969;51.052;17.056;2023-04-06T23:21:18;8.50;46.10
45233;DHT22;30969;51.052;17.056;2023-04-06T23:26:22;8.50;46.70
45233;DHT22;30969;51.052;17.056;2023-04-06T23:31:27;8.50;47.50
45233;DHT22;30969;51.052;17.056;2023-04-06T23:36:30;8.50;47.60
45233;DHT22;30969;51.052;17.056;2023-04-06T23:41:34;8.50;48.30
45233;DHT22;30969;51.052;17.056;2023-04-06T23:46:39;8.40;49.70
45233;DHT22;30969;51.052;17.056;2023-04-06T23:51:42;8.40;49.70
45233;DHT22;30969;51.052;17.056;2023-04-06T23:56:46;8.40;49.80
